sensor_id;sensor_type;location;lat;lon;timestamp;temperature;humidity
12726;DHT22;6427;49.754;6.106;2023-08-07T00:02:12;12.70;99.90
12726;DHT22;6427;49.754;6.106;2023-08-07T00:04:40;12.90;99.90
12726;DHT22;6427;49.754;6.106;2023-08-07T00:07:08;12.70;99.90
12726;DHT22;6427;49.754;6.106;2023-08-07T00:09:36;12.50;99.90
12726;DHT22;6427;49.754;6.106;2023-08-07T00:12:04;12.50;99.90
12726;DHT22;6427;49.754;6.106;2023-08-07T00:14:32;12.70;99.90
12726;DHT22;6427;49.754;6.106;2023-08-07T00:16:59;12.90;99.90
12726;DHT22;6427;49.754;6.106;2023-08-07T00:19:27;12.80;99.90
12726;DHT22;6427;49.754;6.106;2023-08-07T00:21:54;12.60;99.90
12726;DHT22;6427;49.754;6.106;2023-08-07T00:24:22;12.50;99.90
12726;DHT22;6427;49.754;6.106;2023-08-07T00:26:50;12.40;99.90
12726;DHT22;6427;49.754;6.106;2023-08-07T00:29:17;12.40;99.90
12726;DHT22;6427;49.754;6.106;2023-08-07T00:31:45;12.30;99.90
12726;DHT22;6427;49.754;6.106;2023-08-07T00:34:12;12.30;99.90
12726;DHT22;6427;49.754;6.106;2023-08-07T00:36:40;12.20;99.90
12726;DHT22;6427;49.754;6.106;2023-08-07T00:39:08;12.20;99.90
12726;DHT22;6427;49.754;6.106;2023-08-07T00:41:36;12.20;99.90
12726;DHT22;6427;49.754;6.106;2023-08-07T00:44:03;12.20;99.90
12726;DHT22;6427;49.754;6.106;2023-08-07T00:46:31;12.10;99.90
12726;DHT22;6427;49.754;6.106;2023-08-07T00:48:59;12.10;99.90
12726;DHT22;6427;49.754;6.106;2023-08-07T00:51:27;12.10;99.90
12726;DHT22;6427;49.754;6.106;2023-08-07T00:53:55;12.10;99.90
12726;DHT22;6427;49.754;6.106;2023-08-07T00:56:23;12.10;99.90
12726;DHT22;6427;49.754;6.106;2023-08-07T00:58:51;12.30;99.90
12726;DHT22;6427;49.754;6.106;2023-08-07T01:01:19;12.30;99.90
12726;DHT22;6427;49.754;6.106;2023-08-07T01:03:47;12.30;99.90
12726;DHT22;6427;49.754;6.106;2023-08-07T01:06:14;12.20;99.90
12726;DHT22;6427;49.754;6.106;2023-08-07T01:08:43;12.10;99.90
12726;DHT22;6427;49.754;6.106;2023-08-07T01:11:36;12.10;99.90
12726;DHT22;6427;49.754;6.106;2023-08-07T01:16:50;12.30;99.90
12726;DHT22;6427;49.754;6.106;2023-08-07T01:19:25;12.30;99.90
12726;DHT22;6427;49.754;6.106;2023-08-07T01:22:04;12.50;99.90
12726;DHT22;6427;49.754;6.106;2023-08-07T01:24:31;12.40;99.90
12726;DHT22;6427;49.754;6.106;2023-08-07T01:27:00;12.20;99.90
12726;DHT22;6427;49.754;6.106;2023-08-07T01:29:29;12.20;99.90
12726;DHT22;6427;49.754;6.106;2023-08-07T01:31:54;12.10;99.90
12726;DHT22;6427;49.754;6.106;2023-08-07T01:34:22;12.00;99.90
12726;DHT22;6427;49.754;6.106;2023-08-07T01:36:50;12.00;99.90
12726;DHT22;6427;49.754;6.106;2023-08-07T01:39:17;12.00;99.90
12726;DHT22;6427;49.754;6.106;2023-08-07T01:41:45;11.90;99.90
12726;DHT22;6427;49.754;6.106;2023-08-07T01:44:13;11.90;99.90
12726;DHT22;6427;49.754;6.106;2023-08-07T01:46:40;11.90;99.90
12726;DHT22;6427;49.754;6.106;2023-08-07T01:49:08;11.90;99.90
12726;DHT22;6427;49.754;6.106;2023-08-07T01:51:35;11.80;99.90
12726;DHT22;6427;49.754;6.106;2023-08-07T01:54:03;11.80;99.90
12726;DHT22;6427;49.754;6.106;2023-08-07T01:56:31;11.80;99.90
12726;DHT22;6427;49.754;6.106;2023-08-07T01:58:59;12.00;99.90
12726;DHT22;6427;49.754;6.106;2023-08-07T02:01:27;12.00;99.90
12726;DHT22;6427;49.754;6.106;2023-08-07T02:03:55;12.30;99.90
12726;DHT22;6427;49.754;6.106;2023-08-07T02:06:22;12.20;99.90
12726;DHT22;6427;49.754;6.106;2023-08-07T02:08:49;12.10;99.90
12726;DHT22;6427;49.754;6.106;2023-08-07T02:11:17;12.00;99.90
12726;DHT22;6427;49.754;6.106;2023-08-07T02:13:45;12.00;99.90
12726;DHT22;6427;49.754;6.106;2023-08-07T02:16:12;11.90;99.90
12726;DHT22;6427;49.754;6.106;2023-08-07T02:18:40;12.10;99.90
12726;DHT22;6427;49.754;6.106;2023-08-07T02:21:07;12.10;99.90
12726;DHT22;6427;49.754;6.106;2023-08-07T02:23:35;12.00;99.90
12726;DHT22;6427;49.754;6.106;2023-08-07T02:26:03;12.00;99.90
12726;DHT22;6427;49.754;6.106;2023-08-07T02:28:31;11.90;99.90
12726;DHT22;6427;49.754;6.106;2023-08-07T02:30:59;11.90;99.90
12726;DHT22;6427;49.754;6.106;2023-08-07T02:33:26;11.90;99.90
12726;DHT22;6427;49.754;6.106;2023-08-07T02:35:54;11.80;99.90
12726;DHT22;6427;49.754;6.106;2023-08-07T02:38:21;11.80;99.90
12726;DHT22;6427;49.754;6.106;2023-08-07T02:40:49;11.80;99.90
12726;DHT22;6427;49.754;6.106;2023-08-07T02:43:17;11.80;99.90
12726;DHT22;6427;49.754;6.106;2023-08-07T02:45:44;11.80;99.90
12726;DHT22;6427;49.754;6.106;2023-08-07T02:48:12;11.80;99.90
12726;DHT22;6427;49.754;6.106;2023-08-07T02:50:40;12.00;99.90
12726;DHT22;6427;49.754;6.106;2023-08-07T02:53:08;12.00;99.90
12726;DHT22;6427;49.754;6.106;2023-08-07T02:55:35;12.30;99.90
12726;DHT22;6427;49.754;6.106;2023-08-07T02:58:03;12.20;99.90
12726;DHT22;6427;49.754;6.106;2023-08-07T03:00:31;12.20;99.90
12726;DHT22;6427;49.754;6.106;2023-08-07T03:02:58;12.10;99.90
12726;DHT22;6427;49.754;6.106;2023-08-07T03:05:26;12.00;99.90
12726;DHT22;6427;49.754;6.106;2023-08-07T03:07:53;12.20;99.90
12726;DHT22;6427;49.754;6.106;2023-08-07T03:10:21;12.20;99.90
12726;DHT22;6427;49.754;6.106;2023-08-07T03:12:49;12.00;99.90
12726;DHT22;6427;49.754;6.106;2023-08-07T03:15:17;12.00;99.90
12726;DHT22;6427;49.754;6.106;2023-08-07T03:17:44;12.00;99.90
12726;DHT22;6427;49.754;6.106;2023-08-07T03:20:12;11.90;99.90
12726;DHT22;6427;49.754;6.106;2023-08-07T03:22:40;11.90;99.90
12726;DHT22;6427;49.754;6.106;2023-08-07T03:25:07;11.90;99.90
12726;DHT22;6427;49.754;6.106;2023-08-07T03:27:35;11.90;99.90
12726;DHT22;6427;49.754;6.106;2023-08-07T03:30:03;11.80;99.90
12726;DHT22;6427;49.754;6.106;2023-08-07T03:32:30;11.80;99.90
12726;DHT22;6427;49.754;6.106;2023-08-07T03:34:58;12.00;99.90
12726;DHT22;6427;49.754;6.106;2023-08-07T03:37:25;12.00;99.90
12726;DHT22;6427;49.754;6.106;2023-08-07T03:39:53;11.90;99.90
12726;DHT22;6427;49.754;6.106;2023-08-07T03:42:21;11.90;99.90
12726;DHT22;6427;49.754;6.106;2023-08-07T03:44:48;11.80;99.90
12726;DHT22;6427;49.754;6.106;2023-08-07T03:47:16;11.80;99.90
12726;DHT22;6427;49.754;6.106;2023-08-07T03:49:44;12.00;99.90
12726;DHT22;6427;49.754;6.106;2023-08-07T03:52:13;12.00;99.90
12726;DHT22;6427;49.754;6.106;2023-08-07T03:54:40;12.00;99.90
12726;DHT22;6427;49.754;6.106;2023-08-07T03:57:09;11.90;99.90
12726;DHT22;6427;49.754;6.106;2023-08-07T03:59:36;11.90;99.90
12726;DHT22;6427;49.754;6.106;2023-08-07T04:02:04;11.80;99.90
12726;DHT22;6427;49.754;6.106;2023-08-07T04:04:31;11.80;99.90
12726;DHT22;6427;49.754;6.106;2023-08-07T04:06:59;11.80;99.90
12726;DHT22;6427;49.754;6.106;2023-08-07T04:09:27;12.10;99.90
12726;DHT22;6427;49.754;6.106;2023-08-07T04:11:55;12.00;99.90
12726;DHT22;6427;49.754;6.106;2023-08-07T04:14:23;12.00;99.90
12726;DHT22;6427;49.754;6.106;2023-08-07T04:16:50;12.00;99.90
12726;DHT22;6427;49.754;6.106;2023-08-07T04:19:18;11.90;99.90
12726;DHT22;6427;49.754;6.106;2023-08-07T04:21:46;11.90;99.90
12726;DHT22;6427;49.754;6.106;2023-08-07T04:24:14;11.90;99.90
12726;DHT22;6427;49.754;6.106;2023-08-07T04:26:42;11.90;99.90
12726;DHT22;6427;49.754;6.106;2023-08-07T04:29:10;11.90;99.90
12726;DHT22;6427;49.754;6.106;2023-08-07T04:31:37;11.90;99.90
12726;DHT22;6427;49.754;6.106;2023-08-07T04:34:05;11.80;99.90
12726;DHT22;6427;49.754;6.106;2023-08-07T04:36:33;11.90;99.90
12726;DHT22;6427;49.754;6.106;2023-08-07T04:39:00;11.80;99.90
12726;DHT22;6427;49.754;6.106;2023-08-07T04:41:29;11.80;99.90
12726;DHT22;6427;49.754;6.106;2023-08-07T04:43:56;11.80;99.90
12726;DHT22;6427;49.754;6.106;2023-08-07T04:46:24;11.80;99.90
12726;DHT22;6427;49.754;6.106;2023-08-07T04:48:51;11.90;99.90
12726;DHT22;6427;49.754;6.106;2023-08-07T04:51:19;11.90;99.90
12726;DHT22;6427;49.754;6.106;2023-08-07T04:53:46;11.90;99.90
12726;DHT22;6427;49.754;6.106;2023-08-07T04:56:14;11.90;99.90
12726;DHT22;6427;49.754;6.106;2023-08-07T04:58:42;11.90;99.90
12726;DHT22;6427;49.754;6.106;2023-08-07T05:01:09;11.90;99.90
12726;DHT22;6427;49.754;6.106;2023-08-07T05:03:37;11.90;99.90
12726;DHT22;6427;49.754;6.106;2023-08-07T05:06:05;11.90;99.90
12726;DHT22;6427;49.754;6.106;2023-08-07T05:08:34;12.00;99.90
12726;DHT22;6427;49.754;6.106;2023-08-07T05:11:01;12.00;99.90
12726;DHT22;6427;49.754;6.106;2023-08-07T05:13:29;12.00;99.90
12726;DHT22;6427;49.754;6.106;2023-08-07T05:15:56;12.10;99.90
12726;DHT22;6427;49.754;6.106;2023-08-07T05:18:25;12.10;99.90
12726;DHT22;6427;49.754;6.106;2023-08-07T05:20:53;12.10;99.90
12726;DHT22;6427;49.754;6.106;2023-08-07T05:23:21;12.20;99.90
12726;DHT22;6427;49.754;6.106;2023-08-07T05:25:49;12.20;99.90
12726;DHT22;6427;49.754;6.106;2023-08-07T05:28:17;12.20;99.90
12726;DHT22;6427;49.754;6.106;2023-08-07T05:30:44;12.50;99.90
12726;DHT22;6427;49.754;6.106;2023-08-07T05:33:12;12.60;99.90
12726;DHT22;6427;49.754;6.106;2023-08-07T05:35:39;12.60;99.90
12726;DHT22;6427;49.754;6.106;2023-08-07T05:38:07;12.60;99.90
12726;DHT22;6427;49.754;6.106;2023-08-07T05:40:35;12.60;99.90
12726;DHT22;6427;49.754;6.106;2023-08-07T05:43:02;12.70;99.90
12726;DHT22;6427;49.754;6.106;2023-08-07T05:45:30;12.70;99.90
12726;DHT22;6427;49.754;6.106;2023-08-07T05:47:57;12.70;99.90
12726;DHT22;6427;49.754;6.106;2023-08-07T05:50:25;12.70;99.90
12726;DHT22;6427;49.754;6.106;2023-08-07T05:52:53;12.70;99.90
12726;DHT22;6427;49.754;6.106;2023-08-07T05:55:21;12.80;99.90
12726;DHT22;6427;49.754;6.106;2023-08-07T05:57:49;12.80;99.90
12726;DHT22;6427;49.754;6.106;2023-08-07T06:00:16;12.90;99.90
12726;DHT22;6427;49.754;6.106;2023-08-07T06:02:44;12.90;99.90
12726;DHT22;6427;49.754;6.106;2023-08-07T06:05:12;13.00;99.90
12726;DHT22;6427;49.754;6.106;2023-08-07T06:07:40;13.00;99.90
12726;DHT22;6427;49.754;6.106;2023-08-07T06:10:08;13.10;99.90
12726;DHT22;6427;49.754;6.106;2023-08-07T06:12:36;13.10;99.90
12726;DHT22;6427;49.754;6.106;2023-08-07T06:15:03;13.10;99.90
12726;DHT22;6427;49.754;6.106;2023-08-07T06:17:31;13.20;99.90
12726;DHT22;6427;49.754;6.106;2023-08-07T06:19:59;13.20;99.90
12726;DHT22;6427;49.754;6.106;2023-08-07T06:22:26;13.20;99.90
12726;DHT22;6427;49.754;6.106;2023-08-07T06:24:55;13.50;99.90
12726;DHT22;6427;49.754;6.106;2023-08-07T06:27:22;13.50;99.90
12726;DHT22;6427;49.754;6.106;2023-08-07T06:29:50;13.60;99.90
12726;DHT22;6427;49.754;6.106;2023-08-07T06:32:17;13.60;99.90
12726;DHT22;6427;49.754;6.106;2023-08-07T06:34:45;13.60;99.90
12726;DHT22;6427;49.754;6.106;2023-08-07T06:37:13;13.90;99.90
12726;DHT22;6427;49.754;6.106;2023-08-07T06:39:41;14.10;99.90
12726;DHT22;6427;49.754;6.106;2023-08-07T06:42:09;14.10;99.90
12726;DHT22;6427;49.754;6.106;2023-08-07T06:44:36;14.10;99.90
12726;DHT22;6427;49.754;6.106;2023-08-07T06:47:04;14.10;99.90
12726;DHT22;6427;49.754;6.106;2023-08-07T06:49:32;14.10;99.90
12726;DHT22;6427;49.754;6.106;2023-08-07T06:51:59;14.40;99.90
12726;DHT22;6427;49.754;6.106;2023-08-07T06:54:27;14.40;99.90
12726;DHT22;6427;49.754;6.106;2023-08-07T06:56:54;14.40;99.90
12726;DHT22;6427;49.754;6.106;2023-08-07T06:59:23;14.50;99.90
12726;DHT22;6427;49.754;6.106;2023-08-07T07:01:51;14.50;99.90
12726;DHT22;6427;49.754;6.106;2023-08-07T07:04:18;14.60;99.90
12726;DHT22;6427;49.754;6.106;2023-08-07T07:06:46;14.90;99.90
12726;DHT22;6427;49.754;6.106;2023-08-07T07:09:14;14.90;99.90
12726;DHT22;6427;49.754;6.106;2023-08-07T07:11:42;15.00;99.90
12726;DHT22;6427;49.754;6.106;2023-08-07T07:14:10;15.30;99.90
12726;DHT22;6427;49.754;6.106;2023-08-07T07:16:38;15.30;99.90
12726;DHT22;6427;49.754;6.106;2023-08-07T07:19:05;15.30;99.90
12726;DHT22;6427;49.754;6.106;2023-08-07T07:21:33;15.30;99.90
12726;DHT22;6427;49.754;6.106;2023-08-07T07:24:01;15.30;99.90
12726;DHT22;6427;49.754;6.106;2023-08-07T07:26:28;15.40;99.90
12726;DHT22;6427;49.754;6.106;2023-08-07T07:28:56;15.90;99.90
12726;DHT22;6427;49.754;6.106;2023-08-07T07:31:24;15.90;99.90
12726;DHT22;6427;49.754;6.106;2023-08-07T07:33:52;15.90;99.90
12726;DHT22;6427;49.754;6.106;2023-08-07T07:36:20;15.80;99.90
12726;DHT22;6427;49.754;6.106;2023-08-07T07:38:47;15.90;99.90
12726;DHT22;6427;49.754;6.106;2023-08-07T07:41:15;15.90;99.90
12726;DHT22;6427;49.754;6.106;2023-08-07T07:43:43;15.90;99.90
12726;DHT22;6427;49.754;6.106;2023-08-07T07:46:11;16.20;99.90
12726;DHT22;6427;49.754;6.106;2023-08-07T07:48:39;16.20;99.90
12726;DHT22;6427;49.754;6.106;2023-08-07T07:51:06;16.10;99.90
12726;DHT22;6427;49.754;6.106;2023-08-07T07:53:34;16.20;99.90
12726;DHT22;6427;49.754;6.106;2023-08-07T07:56:01;16.20;99.90
12726;DHT22;6427;49.754;6.106;2023-08-07T07:58:29;16.20;99.90
12726;DHT22;6427;49.754;6.106;2023-08-07T08:00:57;16.20;99.90
12726;DHT22;6427;49.754;6.106;2023-08-07T08:03:24;16.20;99.90
12726;DHT22;6427;49.754;6.106;2023-08-07T08:05:52;16.40;99.90
12726;DHT22;6427;49.754;6.106;2023-08-07T08:08:19;16.40;99.90
12726;DHT22;6427;49.754;6.106;2023-08-07T08:10:48;16.70;99.90
12726;DHT22;6427;49.754;6.106;2023-08-07T08:13:15;16.70;99.90
12726;DHT22;6427;49.754;6.106;2023-08-07T08:15:43;16.70;99.90
12726;DHT22;6427;49.754;6.106;2023-08-07T08:18:11;16.70;99.90
12726;DHT22;6427;49.754;6.106;2023-08-07T08:20:39;16.60;99.90
12726;DHT22;6427;49.754;6.106;2023-08-07T08:23:07;16.60;99.90
12726;DHT22;6427;49.754;6.106;2023-08-07T08:25:34;16.60;99.90
12726;DHT22;6427;49.754;6.106;2023-08-07T08:28:02;16.80;99.90
12726;DHT22;6427;49.754;6.106;2023-08-07T08:30:29;16.80;99.90
12726;DHT22;6427;49.754;6.106;2023-08-07T08:32:57;16.70;99.90
12726;DHT22;6427;49.754;6.106;2023-08-07T08:35:25;16.80;99.90
12726;DHT22;6427;49.754;6.106;2023-08-07T08:37:53;17.10;99.90
12726;DHT22;6427;49.754;6.106;2023-08-07T08:40:21;17.10;99.90
12726;DHT22;6427;49.754;6.106;2023-08-07T08:42:48;17.10;99.90
12726;DHT22;6427;49.754;6.106;2023-08-07T08:45:16;17.10;99.30
12726;DHT22;6427;49.754;6.106;2023-08-07T08:47:43;17.10;98.80
12726;DHT22;6427;49.754;6.106;2023-08-07T08:50:12;17.10;98.90
12726;DHT22;6427;49.754;6.106;2023-08-07T08:52:41;17.10;99.20
12726;DHT22;6427;49.754;6.106;2023-08-07T08:55:07;17.20;99.10
12726;DHT22;6427;49.754;6.106;2023-08-07T08:57:35;17.30;98.30
12726;DHT22;6427;49.754;6.106;2023-08-07T09:00:02;17.30;98.30
12726;DHT22;6427;49.754;6.106;2023-08-07T09:02:33;17.80;96.70
12726;DHT22;6427;49.754;6.106;2023-08-07T09:05:01;17.70;96.50
12726;DHT22;6427;49.754;6.106;2023-08-07T09:07:28;17.80;95.50
12726;DHT22;6427;49.754;6.106;2023-08-07T09:09:56;18.00;95.30
12726;DHT22;6427;49.754;6.106;2023-08-07T09:12:25;17.90;96.20
12726;DHT22;6427;49.754;6.106;2023-08-07T09:14:58;17.90;96.20
12726;DHT22;6427;49.754;6.106;2023-08-07T09:17:29;17.90;96.40
12726;DHT22;6427;49.754;6.106;2023-08-07T09:19:58;17.80;96.10
12726;DHT22;6427;49.754;6.106;2023-08-07T09:22:26;17.80;95.80
12726;DHT22;6427;49.754;6.106;2023-08-07T09:24:54;17.80;95.80
12726;DHT22;6427;49.754;6.106;2023-08-07T09:27:21;17.80;95.40
12726;DHT22;6427;49.754;6.106;2023-08-07T09:29:50;18.10;94.00
12726;DHT22;6427;49.754;6.106;2023-08-07T09:32:17;18.10;94.00
12726;DHT22;6427;49.754;6.106;2023-08-07T09:34:45;18.10;93.50
12726;DHT22;6427;49.754;6.106;2023-08-07T09:37:12;18.00;93.50
12726;DHT22;6427;49.754;6.106;2023-08-07T09:39:40;18.00;93.70
12726;DHT22;6427;49.754;6.106;2023-08-07T09:42:14;18.00;94.00
12726;DHT22;6427;49.754;6.106;2023-08-07T09:44:41;18.00;94.40
12726;DHT22;6427;49.754;6.106;2023-08-07T09:47:13;18.50;93.70
12726;DHT22;6427;49.754;6.106;2023-08-07T09:49:40;18.50;93.70
12726;DHT22;6427;49.754;6.106;2023-08-07T09:52:08;18.70;93.00
12726;DHT22;6427;49.754;6.106;2023-08-07T09:54:36;18.70;92.90
12726;DHT22;6427;49.754;6.106;2023-08-07T09:57:03;18.80;93.10
12726;DHT22;6427;49.754;6.106;2023-08-07T09:59:32;18.80;93.30
12726;DHT22;6427;49.754;6.106;2023-08-07T10:02:02;18.80;93.30
12726;DHT22;6427;49.754;6.106;2023-08-07T10:04:30;18.90;93.30
12726;DHT22;6427;49.754;6.106;2023-08-07T10:06:57;19.00;93.30
12726;DHT22;6427;49.754;6.106;2023-08-07T10:09:25;19.00;92.30
12726;DHT22;6427;49.754;6.106;2023-08-07T10:11:53;19.00;92.30
12726;DHT22;6427;49.754;6.106;2023-08-07T10:14:21;19.20;92.60
12726;DHT22;6427;49.754;6.106;2023-08-07T10:16:49;19.10;92.30
12726;DHT22;6427;49.754;6.106;2023-08-07T10:19:17;19.20;92.70
12726;DHT22;6427;49.754;6.106;2023-08-07T10:21:44;19.20;92.50
12726;DHT22;6427;49.754;6.106;2023-08-07T10:24:12;19.20;92.20
12726;DHT22;6427;49.754;6.106;2023-08-07T10:26:43;19.20;91.80
12726;DHT22;6427;49.754;6.106;2023-08-07T10:29:10;19.30;91.70
12726;DHT22;6427;49.754;6.106;2023-08-07T10:31:37;19.20;91.60
12726;DHT22;6427;49.754;6.106;2023-08-07T10:34:05;19.20;92.20
12726;DHT22;6427;49.754;6.106;2023-08-07T10:36:33;19.10;92.60
12726;DHT22;6427;49.754;6.106;2023-08-07T10:39:10;19.10;92.90
12726;DHT22;6427;49.754;6.106;2023-08-07T10:41:45;19.10;93.00
12726;DHT22;6427;49.754;6.106;2023-08-07T10:44:22;19.20;91.60
12726;DHT22;6427;49.754;6.106;2023-08-07T10:46:52;19.20;90.90
12726;DHT22;6427;49.754;6.106;2023-08-07T10:49:33;19.30;90.20
12726;DHT22;6427;49.754;6.106;2023-08-07T10:52:12;19.30;90.40
12726;DHT22;6427;49.754;6.106;2023-08-07T10:54:45;19.30;89.00
12726;DHT22;6427;49.754;6.106;2023-08-07T10:57:13;19.30;86.70
12726;DHT22;6427;49.754;6.106;2023-08-07T11:02:26;19.40;88.70
12726;DHT22;6427;49.754;6.106;2023-08-07T11:04:53;19.50;89.00
12726;DHT22;6427;49.754;6.106;2023-08-07T11:07:28;19.90;88.30
12726;DHT22;6427;49.754;6.106;2023-08-07T11:09:52;19.90;88.30
12726;DHT22;6427;49.754;6.106;2023-08-07T11:12:20;20.00;86.60
12726;DHT22;6427;49.754;6.106;2023-08-07T11:14:47;20.10;85.70
12726;DHT22;6427;49.754;6.106;2023-08-07T11:17:15;20.20;85.60
12726;DHT22;6427;49.754;6.106;2023-08-07T11:19:43;20.30;84.60
12726;DHT22;6427;49.754;6.106;2023-08-07T11:22:11;20.40;82.20
12726;DHT22;6427;49.754;6.106;2023-08-07T11:24:38;20.70;80.90
12726;DHT22;6427;49.754;6.106;2023-08-07T11:27:07;20.80;78.80
12726;DHT22;6427;49.754;6.106;2023-08-07T11:29:34;20.70;78.20
12726;DHT22;6427;49.754;6.106;2023-08-07T11:32:01;20.70;77.30
12726;DHT22;6427;49.754;6.106;2023-08-07T11:34:29;20.60;75.10
12726;DHT22;6427;49.754;6.106;2023-08-07T11:36:56;20.50;74.50
12726;DHT22;6427;49.754;6.106;2023-08-07T11:39:24;20.40;74.00
12726;DHT22;6427;49.754;6.106;2023-08-07T11:41:52;20.40;74.00
12726;DHT22;6427;49.754;6.106;2023-08-07T11:44:22;20.50;74.40
12726;DHT22;6427;49.754;6.106;2023-08-07T11:46:52;20.50;74.60
12726;DHT22;6427;49.754;6.106;2023-08-07T11:49:20;20.50;74.60
12726;DHT22;6427;49.754;6.106;2023-08-07T11:51:47;20.60;73.70
12726;DHT22;6427;49.754;6.106;2023-08-07T11:54:15;20.60;73.70
12726;DHT22;6427;49.754;6.106;2023-08-07T11:56:42;20.80;73.60
12726;DHT22;6427;49.754;6.106;2023-08-07T11:59:10;20.80;73.60
12726;DHT22;6427;49.754;6.106;2023-08-07T12:01:38;20.80;73.40
12726;DHT22;6427;49.754;6.106;2023-08-07T12:06:33;20.70;73.80
12726;DHT22;6427;49.754;6.106;2023-08-07T12:09:00;20.60;73.60
12726;DHT22;6427;49.754;6.106;2023-08-07T12:11:31;20.60;73.70
12726;DHT22;6427;49.754;6.106;2023-08-07T12:14:02;20.60;72.80
12726;DHT22;6427;49.754;6.106;2023-08-07T12:16:31;20.70;72.10
12726;DHT22;6427;49.754;6.106;2023-08-07T12:18:55;20.70;72.00
12726;DHT22;6427;49.754;6.106;2023-08-07T12:21:22;20.70;72.00
12726;DHT22;6427;49.754;6.106;2023-08-07T12:23:51;20.90;70.80
12726;DHT22;6427;49.754;6.106;2023-08-07T12:26:18;20.90;70.70
12726;DHT22;6427;49.754;6.106;2023-08-07T12:28:46;20.80;71.00
12726;DHT22;6427;49.754;6.106;2023-08-07T12:31:13;20.80;71.40
12726;DHT22;6427;49.754;6.106;2023-08-07T12:33:41;20.80;71.20
12726;DHT22;6427;49.754;6.106;2023-08-07T12:36:09;20.80;71.40
12726;DHT22;6427;49.754;6.106;2023-08-07T12:38:36;20.70;70.50
12726;DHT22;6427;49.754;6.106;2023-08-07T12:41:04;20.70;70.50
12726;DHT22;6427;49.754;6.106;2023-08-07T12:43:31;20.70;71.00
12726;DHT22;6427;49.754;6.106;2023-08-07T12:45:59;20.80;71.40
12726;DHT22;6427;49.754;6.106;2023-08-07T12:48:27;21.10;70.10
12726;DHT22;6427;49.754;6.106;2023-08-07T12:50:54;21.40;68.20
12726;DHT22;6427;49.754;6.106;2023-08-07T12:53:22;21.50;68.80
12726;DHT22;6427;49.754;6.106;2023-08-07T12:55:49;21.50;68.90
12726;DHT22;6427;49.754;6.106;2023-08-07T12:58:18;21.70;65.60
12726;DHT22;6427;49.754;6.106;2023-08-07T13:00:45;21.60;65.50
12726;DHT22;6427;49.754;6.106;2023-08-07T13:03:14;21.50;65.10
12726;DHT22;6427;49.754;6.106;2023-08-07T13:05:42;21.50;65.10
12726;DHT22;6427;49.754;6.106;2023-08-07T13:08:09;21.50;65.90
12726;DHT22;6427;49.754;6.106;2023-08-07T13:10:38;21.80;65.90
12726;DHT22;6427;49.754;6.106;2023-08-07T13:13:05;21.70;65.80
12726;DHT22;6427;49.754;6.106;2023-08-07T13:15:33;21.80;66.60
12726;DHT22;6427;49.754;6.106;2023-08-07T13:18:01;22.00;65.70
12726;DHT22;6427;49.754;6.106;2023-08-07T13:20:29;22.00;65.70
12726;DHT22;6427;49.754;6.106;2023-08-07T13:22:57;22.10;63.90
12726;DHT22;6427;49.754;6.106;2023-08-07T13:25:24;22.00;62.70
12726;DHT22;6427;49.754;6.106;2023-08-07T13:27:52;22.10;62.10
12726;DHT22;6427;49.754;6.106;2023-08-07T13:30:20;22.10;62.30
12726;DHT22;6427;49.754;6.106;2023-08-07T13:32:48;22.10;62.20
12726;DHT22;6427;49.754;6.106;2023-08-07T13:35:15;22.10;62.80
12726;DHT22;6427;49.754;6.106;2023-08-07T13:37:43;22.00;63.50
12726;DHT22;6427;49.754;6.106;2023-08-07T13:40:11;22.10;65.00
12726;DHT22;6427;49.754;6.106;2023-08-07T13:42:38;22.40;65.50
12726;DHT22;6427;49.754;6.106;2023-08-07T13:45:07;22.50;63.30
12726;DHT22;6427;49.754;6.106;2023-08-07T13:47:34;22.50;63.30
12726;DHT22;6427;49.754;6.106;2023-08-07T13:50:02;22.50;61.40
12726;DHT22;6427;49.754;6.106;2023-08-07T13:52:30;22.40;61.00
12726;DHT22;6427;49.754;6.106;2023-08-07T13:54:57;22.40;61.60
12726;DHT22;6427;49.754;6.106;2023-08-07T13:57:25;22.40;61.00
12726;DHT22;6427;49.754;6.106;2023-08-07T13:59:53;22.50;61.60
12726;DHT22;6427;49.754;6.106;2023-08-07T14:02:22;22.50;61.60
12726;DHT22;6427;49.754;6.106;2023-08-07T14:04:50;22.60;63.00
12726;DHT22;6427;49.754;6.106;2023-08-07T14:07:17;22.70;63.10
12726;DHT22;6427;49.754;6.106;2023-08-07T14:09:45;22.70;63.50
12726;DHT22;6427;49.754;6.106;2023-08-07T14:12:13;22.90;62.90
12726;DHT22;6427;49.754;6.106;2023-08-07T14:14:41;22.90;62.90
12726;DHT22;6427;49.754;6.106;2023-08-07T14:17:09;23.00;63.00
12726;DHT22;6427;49.754;6.106;2023-08-07T14:19:36;23.00;63.40
12726;DHT22;6427;49.754;6.106;2023-08-07T14:22:04;23.10;63.70
12726;DHT22;6427;49.754;6.106;2023-08-07T14:24:32;23.20;63.80
12726;DHT22;6427;49.754;6.106;2023-08-07T14:27:00;23.30;63.90
12726;DHT22;6427;49.754;6.106;2023-08-07T14:29:28;23.40;64.30
12726;DHT22;6427;49.754;6.106;2023-08-07T14:31:56;23.40;64.10
12726;DHT22;6427;49.754;6.106;2023-08-07T14:34:23;23.50;63.80
12726;DHT22;6427;49.754;6.106;2023-08-07T14:36:51;23.70;63.50
12726;DHT22;6427;49.754;6.106;2023-08-07T14:39:19;23.80;63.50
12726;DHT22;6427;49.754;6.106;2023-08-07T14:41:46;23.80;63.10
12726;DHT22;6427;49.754;6.106;2023-08-07T14:44:14;23.90;64.50
12726;DHT22;6427;49.754;6.106;2023-08-07T14:46:41;23.90;62.90
12726;DHT22;6427;49.754;6.106;2023-08-07T14:49:10;24.10;60.80
12726;DHT22;6427;49.754;6.106;2023-08-07T14:51:37;24.10;59.90
12726;DHT22;6427;49.754;6.106;2023-08-07T14:54:05;24.10;60.20
12726;DHT22;6427;49.754;6.106;2023-08-07T14:56:33;24.10;59.80
12726;DHT22;6427;49.754;6.106;2023-08-07T14:59:01;24.30;60.60
12726;DHT22;6427;49.754;6.106;2023-08-07T15:01:29;24.30;60.50
12726;DHT22;6427;49.754;6.106;2023-08-07T15:03:56;24.20;60.60
12726;DHT22;6427;49.754;6.106;2023-08-07T15:06:24;24.00;61.20
12726;DHT22;6427;49.754;6.106;2023-08-07T15:08:52;23.90;62.50
12726;DHT22;6427;49.754;6.106;2023-08-07T15:11:20;23.90;62.40
12726;DHT22;6427;49.754;6.106;2023-08-07T15:13:47;23.90;62.50
12726;DHT22;6427;49.754;6.106;2023-08-07T15:16:15;23.70;62.40
12726;DHT22;6427;49.754;6.106;2023-08-07T15:18:43;23.60;63.50
12726;DHT22;6427;49.754;6.106;2023-08-07T15:21:10;23.40;63.10
12726;DHT22;6427;49.754;6.106;2023-08-07T15:23:38;23.10;62.90
12726;DHT22;6427;49.754;6.106;2023-08-07T15:26:06;22.70;63.30
12726;DHT22;6427;49.754;6.106;2023-08-07T15:28:34;22.60;63.90
12726;DHT22;6427;49.754;6.106;2023-08-07T15:31:01;22.40;64.10
12726;DHT22;6427;49.754;6.106;2023-08-07T15:33:29;22.20;65.00
12726;DHT22;6427;49.754;6.106;2023-08-07T15:35:57;21.90;65.40
12726;DHT22;6427;49.754;6.106;2023-08-07T15:38:25;21.90;65.40
12726;DHT22;6427;49.754;6.106;2023-08-07T15:40:53;21.90;66.70
12726;DHT22;6427;49.754;6.106;2023-08-07T15:43:20;22.00;67.50
12726;DHT22;6427;49.754;6.106;2023-08-07T15:45:51;22.30;67.30
12726;DHT22;6427;49.754;6.106;2023-08-07T15:48:19;22.70;66.30
12726;DHT22;6427;49.754;6.106;2023-08-07T15:50:46;22.90;65.20
12726;DHT22;6427;49.754;6.106;2023-08-07T15:53:14;23.00;64.90
12726;DHT22;6427;49.754;6.106;2023-08-07T15:55:42;23.20;63.90
12726;DHT22;6427;49.754;6.106;2023-08-07T15:58:10;23.20;63.90